Terminal Aerodrome Forecast
Issued by NWS

Home | Current Version | Previous Version | Text Only | Print | Product List | Glossary On
Versions: 1 2 3 4 5 6 7 8 9 10 11 12 13 14 15
000
FTUS42 TJSJ 210520
TAFIST
TAF
TIST 210520Z 2106/2206 07015KT P6SM VCSH FEW026 FEW040 SCT060
     FM211300 11015KT P6SM SCT030
     FM212300 09010KT P6SM VCSH FEW025=

USA.gov is the U.S. government's official web portal to all federal, state and local government web resources and services.